Time;durP1;ratioP1;P1;durP2;ratioP2;P2;SDS_P1;SDS_P2;PMS_P1;PMS_P2;Temp;Humidity;BMP_temperature;BMP_pressure;BME280_temperature;BME280_humidity;BME280_pressure;Samples;Min_cycle;Max_cycle;Signal;HPM_P1;HPM_P2
2022/11/02 00:02:03;;;;;;;7.55;1.98;;;13.50;70.30;;;;;;5053674;28;20028;-49
2022/11/02 00:04:29;;;;;;;8.13;1.65;;;13.60;70.20;;;;;;5053173;28;20082;-50
2022/11/02 00:06:55;;;;;;;8.70;2.22;;;13.60;70.40;;;;;;5053213;28;20060;-50
2022/11/02 00:09:20;;;;;;;12.20;2.40;;;13.60;70.30;;;;;;5051760;28;20025;-48
2022/11/02 00:11:46;;;;;;;6.70;1.92;;;13.50;70.40;;;;;;5053123;28;20075;-48
2022/11/02 00:14:11;;;;;;;13.15;1.80;;;13.50;70.60;;;;;;5053111;28;20033;-48
2022/11/02 00:16:39;;;;;;;15.10;1.58;;;13.50;70.50;;;;;;5053059;28;20361;-51
2022/11/02 00:19:07;;;;;;;6.50;1.77;;;13.50;70.60;;;;;;5053454;28;20056;-50
2022/11/02 00:21:33;;;;;;;15.88;2.35;;;13.50;70.70;;;;;;5053219;28;20128;-49
2022/11/02 00:24:00;;;;;;;3.90;1.35;;;13.50;70.80;;;;;;5053228;28;20493;-49
2022/11/02 00:26:27;;;;;;;10.55;2.60;;;13.50;71.30;;;;;;5051971;28;20036;-49
2022/11/02 00:28:54;;;;;;;9.13;2.58;;;13.50;71.50;;;;;;5053373;28;20035;-49
2022/11/02 00:31:19;;;;;;;8.45;2.42;;;13.50;72.00;;;;;;5053246;28;20403;-51
2022/11/02 00:33:45;;;;;;;8.73;2.28;;;13.40;73.50;;;;;;5053013;28;20061;-48
2022/11/02 00:36:11;;;;;;;9.40;1.80;;;13.20;74.90;;;;;;5052881;28;20496;-49
2022/11/02 00:38:37;;;;;;;15.02;1.60;;;13.10;75.40;;;;;;5053098;28;20364;-49
2022/11/02 00:41:02;;;;;;;14.18;1.90;;;13.00;76.10;;;;;;5051655;28;20029;-50
2022/11/02 00:43:28;;;;;;;11.80;2.50;;;13.00;76.20;;;;;;5052905;28;20091;-49
2022/11/02 00:45:54;;;;;;;13.98;1.67;;;13.00;76.30;;;;;;5057330;28;20021;-51
2022/11/02 00:48:19;;;;;;;9.80;2.28;;;13.10;76.40;;;;;;5057293;28;20029;-48
2022/11/02 00:50:45;;;;;;;8.38;1.52;;;13.00;76.50;;;;;;5057272;28;20033;-52
2022/11/02 00:53:11;;;;;;;5.97;1.77;;;13.00;76.20;;;;;;5057013;28;20508;-50
2022/11/02 00:55:37;;;;;;;10.98;2.70;;;13.10;76.30;;;;;;5057218;28;20028;-51
2022/11/02 00:58:03;;;;;;;7.05;2.03;;;13.20;76.00;;;;;;5057315;28;20052;-49
2022/11/02 01:00:29;;;;;;;12.15;1.60;;;13.10;75.50;;;;;;5056995;28;20081;-51
2022/11/02 01:02:57;;;;;;;10.25;2.83;;;13.10;75.30;;;;;;5055611;28;20385;-48
2022/11/02 01:05:23;;;;;;;6.60;1.38;;;13.30;74.70;;;;;;5056958;28;20154;-48
2022/11/02 01:07:49;;;;;;;9.65;1.58;;;13.30;74.60;;;;;;5055090;28;20489;-49
2022/11/02 01:10:14;;;;;;;3.70;1.50;;;13.30;74.50;;;;;;5055056;28;20123;-51
2022/11/02 01:12:40;;;;;;;4.22;1.63;;;13.30;74.80;;;;;;5055029;28;20021;-48
2022/11/02 01:15:09;;;;;;;13.30;2.65;;;13.30;74.40;;;;;;5056465;28;20620;-48
2022/11/02 01:17:34;;;;;;;12.68;2.33;;;13.50;73.70;;;;;;5056178;28;20025;-48
2022/11/02 01:20:01;;;;;;;6.20;1.98;;;13.50;73.60;;;;;;5056153;28;20025;-50
2022/11/02 01:22:26;;;;;;;14.65;2.85;;;13.50;73.60;;;;;;5055878;28;20041;-50
2022/11/02 01:24:52;;;;;;;11.55;3.00;;;13.40;73.80;;;;;;5056446;28;20025;-49
2022/11/02 01:27:17;;;;;;;6.57;2.22;;;13.40;73.90;;;;;;5056085;28;20025;-50
2022/11/02 01:29:43;;;;;;;10.18;1.83;;;13.50;73.60;;;;;;5054691;28;20074;-49
2022/11/02 01:32:09;;;;;;;17.60;2.20;;;13.40;74.00;;;;;;5055877;28;20549;-49
2022/11/02 01:34:34;;;;;;;6.80;1.65;;;13.50;73.70;;;;;;5055906;28;20025;-49
2022/11/02 01:37:00;;;;;;;5.75;1.55;;;13.40;73.70;;;;;;5055902;28;20021;-51
2022/11/02 01:39:25;;;;;;;10.70;1.63;;;13.50;73.50;;;;;;5055802;28;20377;-49
2022/11/02 01:41:52;;;;;;;5.47;2.05;;;13.50;73.80;;;;;;5055870;28;20139;-49
2022/11/02 01:44:33;;;;;;;9.60;2.15;;;13.50;73.60;;;;;;5055879;28;20021;-49
2022/11/02 01:47:05;;;;;;;20.80;4.95;;;13.50;73.60;;;;;;5055975;28;20029;-49
2022/11/02 01:49:35;;;;;;;5.15;2.05;;;13.50;73.20;;;;;;5055222;28;20115;-50
2022/11/02 01:52:11;;;;;;;9.70;2.10;;;13.50;73.60;;;;;;5056205;28;20166;-48
2022/11/02 01:54:43;;;;;;;8.93;2.00;;;13.40;73.80;;;;;;5055683;28;20108;-50
2022/11/02 01:57:12;;;;;;;11.32;2.03;;;13.30;74.10;;;;;;5055593;28;20416;-51
2022/11/02 02:00:03;;;;;;;11.05;2.05;;;13.30;74.40;;;;;;5055666;28;20048;-50
2022/11/02 02:02:29;;;;;;;6.07;1.92;;;13.30;74.40;;;;;;5054938;28;20051;-48
2022/11/02 02:05:09;;;;;;;9.32;2.78;;;13.30;74.30;;;;;;5055203;28;20404;-50
2022/11/02 02:07:36;;;;;;;;;;;13.30;74.50;;;;;;5055715;28;20434;-51
2022/11/02 02:10:03;;;;;;;5.43;1.40;;;13.30;74.50;;;;;;5055104;28;19904;-48
2022/11/02 02:12:29;;;;;;;18.65;2.25;;;13.20;74.70;;;;;;5054925;28;20389;-50
2022/11/02 02:14:55;;;;;;;7.30;2.08;;;13.20;74.70;;;;;;5055146;28;20057;-52
2022/11/02 02:17:35;;;;;;;12.38;2.47;;;13.20;75.00;;;;;;5055200;28;20064;-51
2022/11/02 02:20:24;;;;;;;12.65;2.58;;;13.30;74.80;;;;;;5055443;28;20036;-50
2022/11/02 02:23:17;;;;;;;15.23;2.05;;;13.30;74.70;;;;;;5054738;28;20048;-49
2022/11/02 02:26:09;;;;;;;8.63;4.03;;;13.30;74.80;;;;;;5054899;28;20021;-50
2022/11/02 02:28:41;;;;;;;6.55;1.80;;;13.30;74.90;;;;;;5054938;28;20111;-48
2022/11/02 02:31:07;;;;;;;10.13;1.65;;;13.30;75.10;;;;;;5054545;28;20219;-48
2022/11/02 02:33:39;;;;;;;8.35;2.08;;;13.20;75.50;;;;;;5053320;28;20048;-50
2022/11/02 02:36:28;;;;;;;10.70;2.38;;;13.20;75.50;;;;;;5054641;28;20082;-50
2022/11/02 02:38:59;;;;;;;8.38;2.17;;;13.20;75.40;;;;;;5054963;28;20485;-49
2022/11/02 02:41:46;;;;;;;12.43;2.05;;;13.20;75.60;;;;;;5053825;28;20473;-51
2022/11/02 02:44:22;;;;;;;6.15;1.70;;;13.10;75.90;;;;;;5054605;28;20339;-49
2022/11/02 02:47:03;;;;;;;9.15;2.10;;;13.20;75.70;;;;;;5055274;28;20029;-48
2022/11/02 02:49:42;;;;;;;10.95;2.95;;;13.10;75.80;;;;;;5053652;28;20021;-48
2022/11/02 02:52:09;;;;;;;11.35;2.25;;;13.10;76.00;;;;;;5054465;28;20045;-49
2022/11/02 02:54:44;;;;;;;11.52;1.90;;;13.20;75.60;;;;;;5053044;28;20017;-50
2022/11/02 02:57:15;;;;;;;7.97;2.13;;;13.10;75.70;;;;;;5054681;28;20043;-49
2022/11/02 02:59:47;;;;;;;4.90;1.27;;;13.10;75.90;;;;;;5054441;28;20100;-52
2022/11/02 03:02:34;;;;;;;10.88;2.30;;;13.10;75.80;;;;;;5054260;28;20029;-49
2022/11/02 03:05:00;;;;;;;9.05;1.98;;;13.20;75.60;;;;;;5054400;28;20078;-50
2022/11/02 03:07:30;;;;;;;6.70;2.20;;;13.10;75.70;;;;;;5053253;28;20021;-49
2022/11/02 03:09:59;;;;;;;12.23;2.38;;;13.20;75.40;;;;;;5054463;28;20028;-49
2022/11/02 03:12:39;;;;;;;13.02;2.22;;;13.20;75.50;;;;;;5054019;28;20100;-47
2022/11/02 03:15:12;;;;;;;4.70;1.40;;;13.20;75.60;;;;;;5054072;28;20031;-52
2022/11/02 03:18:13;;;;;;;10.05;2.38;;;13.30;75.40;;;;;;5054177;28;20037;-48
2022/11/02 03:21:09;;;;;;;10.30;2.45;;;13.30;75.30;;;;;;5052962;28;20475;-51
2022/11/02 03:23:40;;;;;;;6.75;2.28;;;13.30;75.30;;;;;;5053500;28;20041;-48
2022/11/02 03:26:12;;;;;;;8.57;1.63;;;13.30;75.40;;;;;;5053811;28;20024;-49
2022/11/02 03:28:59;;;;;;;10.95;2.60;;;13.30;75.20;;;;;;5054094;28;20423;-48
2022/11/02 03:31:45;;;;;;;12.00;2.55;;;13.30;75.00;;;;;;5054068;28;20049;-48
2022/11/02 03:34:38;;;;;;;11.75;2.05;;;13.40;74.70;;;;;;5053920;28;20029;-50
2022/11/02 03:37:30;;;;;;;6.50;1.30;;;13.40;74.30;;;;;;5053604;28;20425;-48
2022/11/02 03:40:21;;;;;;;4.45;1.45;;;13.40;74.20;;;;;;5053717;28;20108;-49
2022/11/02 03:42:48;;;;;;;11.68;2.47;;;13.40;74.00;;;;;;5052961;28;20048;-51
2022/11/02 03:45:20;;;;;;;7.38;1.90;;;13.50;73.70;;;;;;5053460;28;20021;-48
2022/11/02 03:47:56;;;;;;;20.45;2.60;;;13.40;73.70;;;;;;5053613;28;20067;-49
2022/11/02 03:50:23;;;;;;;3.63;1.15;;;13.40;73.60;;;;;;5054005;28;20047;-48
2022/11/02 03:52:57;;;;;;;14.43;2.63;;;13.40;73.70;;;;;;5053781;28;20080;-50
2022/11/02 03:55:34;;;;;;;8.82;2.85;;;13.30;73.90;;;;;;5054023;28;20036;-51
2022/11/02 03:58:00;;;;;;;8.57;1.50;;;13.30;73.80;;;;;;5053418;28;20025;-50
2022/11/02 04:00:28;;;;;;;18.48;3.83;;;13.30;74.10;;;;;;5053448;28;20032;-48
2022/11/02 04:02:58;;;;;;;15.32;2.15;;;13.20;74.10;;;;;;5051897;28;20087;-50
2022/11/02 04:05:29;;;;;;;8.05;1.08;;;13.30;73.80;;;;;;5051916;28;20508;-48
2022/11/02 04:14:36;;;;;;;6.88;2.28;;;13.30;74.10;;;;;;5053250;28;20035;-49
2022/11/02 04:16:08;;;;;;;9.25;2.13;;;13.30;74.10;;;;;;5053463;28;20044;-49
2022/11/02 04:21:18;;;;;;;4.78;1.45;;;13.30;73.80;;;;;;5053287;28;20086;-51
2022/11/02 04:26:28;;;;;;;9.65;1.52;;;13.20;73.80;;;;;;5052975;28;20393;-50
2022/11/02 04:28:53;;;;;;;8.13;1.63;;;13.10;73.90;;;;;;5052981;28;20033;-48
2022/11/02 04:31:19;;;;;;;4.80;1.90;;;13.10;73.70;;;;;;5052873;28;20025;-49
2022/11/02 04:33:45;;;;;;;5.13;1.65;;;13.10;73.90;;;;;;5053018;28;20104;-49
2022/11/02 04:36:10;;;;;;;8.55;2.85;;;13.00;74.20;;;;;;5053024;28;20420;-51
2022/11/02 04:38:42;;;;;;;7.03;2.83;;;13.00;74.20;;;;;;5053106;28;20507;-49
2022/11/02 04:43:56;;;;;;;6.82;2.30;;;13.00;74.30;;;;;;5053980;28;20044;-50
2022/11/02 04:46:23;;;;;;;12.45;1.95;;;12.90;74.40;;;;;;5053695;28;20025;-49
2022/11/02 04:48:49;;;;;;;10.30;1.92;;;13.00;74.40;;;;;;5053592;28;20111;-49
2022/11/02 04:51:16;;;;;;;7.85;2.38;;;13.00;74.30;;;;;;5053352;28;20025;-48
2022/11/02 04:53:41;;;;;;;3.67;1.52;;;13.10;74.20;;;;;;5053849;28;20032;-48
2022/11/02 04:56:07;;;;;;;9.00;1.75;;;13.10;74.10;;;;;;5054226;28;20171;-49
2022/11/02 04:58:33;;;;;;;7.13;1.83;;;13.10;74.20;;;;;;5054053;28;20116;-50
2022/11/02 05:01:08;;;;;;;7.78;1.63;;;13.20;73.80;;;;;;5054250;28;20377;-49
2022/11/02 05:03:34;;;;;;;7.38;2.65;;;13.20;74.00;;;;;;5054228;28;20056;-49
2022/11/02 05:06:00;;;;;;;16.40;3.35;;;13.10;74.30;;;;;;5055782;28;20098;-51
2022/11/02 05:08:25;;;;;;;8.25;2.85;;;13.00;74.40;;;;;;5053314;28;20029;-50
2022/11/02 05:10:55;;;;;;;7.55;2.05;;;12.90;74.70;;;;;;5054398;28;20021;-50
2022/11/02 05:13:25;;;;;;;8.15;1.95;;;12.80;75.10;;;;;;5054277;28;20102;-49
2022/11/02 05:15:54;;;;;;;3.30;1.30;;;12.80;75.10;;;;;;5053320;28;20036;-49
2022/11/02 05:18:20;;;;;;;3.47;1.73;;;12.90;74.90;;;;;;5053105;28;20260;-48
2022/11/02 05:20:53;;;;;;;16.33;3.60;;;12.90;74.80;;;;;;5053075;28;20534;-48
2022/11/02 05:23:20;;;;;;;5.00;1.65;;;12.90;74.80;;;;;;5052340;28;20445;-47
2022/11/02 05:25:56;;;;;;;5.68;1.65;;;12.80;74.80;;;;;;5052644;28;20046;-49
2022/11/02 05:28:22;;;;;;;10.65;2.00;;;12.90;74.50;;;;;;5052955;28;20025;-50
2022/11/02 05:30:48;;;;;;;7.15;1.70;;;12.90;74.70;;;;;;5054497;28;20025;-49
2022/11/02 05:33:14;;;;;;;10.60;1.65;;;12.80;74.80;;;;;;5056218;28;20025;-48
2022/11/02 05:35:40;;;;;;;7.70;2.08;;;12.80;74.90;;;;;;5056147;28;20025;-48
2022/11/02 05:38:06;;;;;;;8.90;1.85;;;12.80;74.50;;;;;;5056181;28;20025;-49
2022/11/02 05:40:39;;;;;;;12.57;3.03;;;12.80;74.50;;;;;;5054710;28;20025;-51
2022/11/02 05:43:06;;;;;;;6.85;1.65;;;12.80;74.50;;;;;;5056124;28;20523;-50
2022/11/02 05:45:32;;;;;;;15.65;2.47;;;12.80;74.60;;;;;;5055945;28;20020;-48
2022/11/02 05:48:07;;;;;;;8.35;2.67;;;12.80;74.60;;;;;;5055792;28;20040;-49
2022/11/02 05:50:33;;;;;;;5.32;1.40;;;12.70;75.00;;;;;;5055583;28;20040;-50
2022/11/02 05:52:58;;;;;;;8.73;2.05;;;12.70;74.90;;;;;;5055583;28;20029;-48
2022/11/02 05:55:24;;;;;;;11.25;2.40;;;12.60;75.10;;;;;;5054290;28;20025;-48
2022/11/02 05:57:52;;;;;;;3.03;1.08;;;12.60;75.10;;;;;;5055416;28;20107;-49
2022/11/02 06:00:18;;;;;;;10.40;2.75;;;12.60;75.10;;;;;;5055682;28;20480;-48
2022/11/02 06:02:44;;;;;;;6.75;2.42;;;12.60;75.00;;;;;;5056011;28;20464;-49
2022/11/02 06:05:10;;;;;;;5.38;2.25;;;12.60;75.00;;;;;;5055374;28;20029;-49
2022/11/02 06:07:35;;;;;;;10.35;1.98;;;12.50;75.20;;;;;;5053606;28;20020;-51
2022/11/02 16:21:00;;;;;;;15.13;2.72;;;12.80;69.30;;;;;;5070900;28;20391;-40
2022/11/02 16:23:29;;;;;;;15.52;2.33;;;12.70;69.40;;;;;;5070772;28;20029;-39
2022/11/02 16:25:58;;;;;;;14.20;3.45;;;12.80;69.30;;;;;;5068935;28;20021;-38
2022/11/02 16:28:29;;;;;;;13.52;2.67;;;12.80;68.90;;;;;;5070171;28;20036;-44
2022/11/02 16:31:00;;;;;;;12.80;4.40;;;12.80;69.00;;;;;;5070737;28;20083;-38
2022/11/02 16:33:30;;;;;;;17.30;6.55;;;12.70;69.30;;;;;;5070289;28;20085;-39
2022/11/02 16:35:56;;;;;;;17.05;3.20;;;12.60;69.30;;;;;;5070738;28;20048;-40
2022/11/02 16:38:22;;;;;;;11.52;3.58;;;12.60;69.60;;;;;;5072453;28;20424;-39
2022/11/02 16:40:49;;;;;;;14.05;3.03;;;12.50;69.90;;;;;;5070411;28;20469;-39
2022/11/02 16:43:15;;;;;;;20.92;5.15;;;12.50;70.10;;;;;;5068701;28;20052;-38
2022/11/02 16:45:41;;;;;;;12.50;3.60;;;12.40;70.60;;;;;;5070465;28;20032;-48
2022/11/02 16:48:17;;;;;;;16.63;3.53;;;12.40;70.60;;;;;;5070112;28;20021;-40
2022/11/02 16:51:04;;;;;;;11.40;3.28;;;12.40;70.70;;;;;;5068602;28;20554;-41
2022/11/02 16:53:35;;;;;;;14.80;4.18;;;12.30;71.10;;;;;;5070125;28;20029;-40
2022/11/02 16:56:34;;;;;;;16.85;4.28;;;12.30;71.50;;;;;;5068678;28;20067;-40
2022/11/02 16:59:04;;;;;;;13.40;3.80;;;12.20;71.80;;;;;;5057437;28;20033;-38
2022/11/02 17:01:38;;;;;;;13.63;3.78;;;12.20;72.00;;;;;;5069598;28;20032;-40
2022/11/02 17:04:24;;;;;;;16.67;4.22;;;12.20;72.00;;;;;;5069773;28;20083;-41
2022/11/02 17:06:52;;;;;;;13.95;3.15;;;12.30;71.80;;;;;;5067936;28;20055;-41
2022/11/02 17:09:24;;;;;;;14.68;3.42;;;12.00;72.00;;;;;;5069572;28;20020;-39
2022/11/02 17:11:50;;;;;;;7.85;2.72;;;12.00;72.40;;;;;;5069268;28;20108;-40
2022/11/02 17:14:19;;;;;;;13.35;2.90;;;11.90;72.60;;;;;;5067993;28;20412;-38
2022/11/02 17:17:04;;;;;;;19.63;3.10;;;12.00;72.70;;;;;;5069148;28;20029;-39
2022/11/02 17:19:39;;;;;;;11.70;3.30;;;11.90;72.50;;;;;;5069289;28;20040;-38
2022/11/02 17:22:20;;;;;;;11.70;3.55;;;11.80;72.60;;;;;;5069484;28;20473;-40
2022/11/02 17:25:11;;;;;;;24.92;6.72;;;11.90;72.80;;;;;;5067682;28;20100;-39
2022/11/02 17:27:36;;;;;;;;;;;11.90;72.90;;;;;;5068056;28;20025;-38
2022/11/02 17:30:03;;;;;;;21.58;5.13;;;11.80;72.80;;;;;;5068193;28;19905;-40
2022/11/02 17:32:29;;;;;;;11.75;2.78;;;12.00;72.40;;;;;;5055326;28;20139;-40
2022/11/02 17:34:57;;;;;;;24.17;4.63;;;11.90;72.50;;;;;;5057367;28;20021;-39
2022/11/02 17:37:25;;;;;;;19.70;4.85;;;11.80;72.70;;;;;;5055967;28;20052;-39
2022/11/02 17:39:51;;;;;;;19.25;4.32;;;11.80;72.90;;;;;;5055535;28;20047;-40
2022/11/02 17:45:25;;;;;;;10.98;3.45;;;11.80;72.80;;;;;;5055763;28;20488;-39
2022/11/02 17:47:51;;;;;;;13.45;3.67;;;11.80;72.80;;;;;;5049005;28;20036;-40
2022/11/02 17:50:20;;;;;;;16.35;4.43;;;11.70;72.70;;;;;;5055415;28;20076;-40
2022/11/02 17:52:47;;;;;;;19.02;4.53;;;11.70;72.80;;;;;;5055706;28;20354;-39
2022/11/02 17:55:16;;;;;;;16.65;3.30;;;11.70;73.00;;;;;;5055464;28;20086;-51
2022/11/02 17:57:42;;;;;;;10.23;3.88;;;11.70;73.00;;;;;;5053936;28;20052;-48
2022/11/02 18:00:08;;;;;;;19.45;3.40;;;11.60;73.00;;;;;;5055155;28;20083;-55
2022/11/02 18:02:34;;;;;;;18.40;3.15;;;11.60;73.10;;;;;;5054029;28;20040;-49
2022/11/02 18:04:59;;;;;;;14.43;3.35;;;11.50;72.90;;;;;;5053922;28;20017;-48
2022/11/02 18:07:25;;;;;;;10.80;2.47;;;11.60;72.80;;;;;;5053954;28;20358;-48
2022/11/02 18:09:51;;;;;;;12.90;3.03;;;11.50;72.90;;;;;;5055513;28;20025;-50
2022/11/02 18:12:16;;;;;;;14.57;3.47;;;11.50;72.70;;;;;;5055080;28;20025;-48
2022/11/02 18:14:42;;;;;;;12.13;3.72;;;11.50;72.70;;;;;;5054830;28;20050;-50
2022/11/02 18:17:08;;;;;;;20.92;5.82;;;11.50;72.60;;;;;;5055130;28;20396;-49
2022/11/02 18:19:34;;;;;;;14.88;2.97;;;11.40;72.80;;;;;;5054856;28;20129;-48
2022/11/02 18:22:00;;;;;;;17.35;3.00;;;11.30;73.10;;;;;;5055280;28;20056;-48
2022/11/02 18:24:26;;;;;;;18.98;4.00;;;11.30;73.20;;;;;;5054983;28;20021;-50
2022/11/02 18:26:53;;;;;;;12.95;2.72;;;11.30;73.10;;;;;;5053344;28;20476;-48
2022/11/02 18:29:19;;;;;;;9.02;3.72;;;11.30;73.00;;;;;;5054943;28;20103;-49
2022/11/02 18:31:45;;;;;;;10.65;3.60;;;11.20;73.10;;;;;;5055511;28;20060;-48
2022/11/02 18:34:10;;;;;;;9.95;2.70;;;11.10;73.50;;;;;;5055847;28;20021;-48
2022/11/02 18:36:38;;;;;;;5.45;3.03;;;11.10;73.50;;;;;;5055615;28;20025;-49
2022/11/02 18:39:03;;;;;;;13.30;3.10;;;11.10;73.50;;;;;;5055552;28;20029;-48
2022/11/02 18:41:30;;;;;;;13.35;2.42;;;11.00;73.60;;;;;;5055702;28;20387;-50
2022/11/02 18:44:01;;;;;;;11.60;3.28;;;11.10;73.50;;;;;;5054262;28;20090;-49
2022/11/02 18:46:27;;;;;;;10.30;3.33;;;11.10;73.20;;;;;;5055000;28;20025;-50
2022/11/02 18:48:53;;;;;;;16.00;3.45;;;11.20;72.90;;;;;;5056009;28;20104;-51
2022/11/02 18:51:20;;;;;;;7.90;2.70;;;11.20;72.40;;;;;;5055997;28;20040;-50
2022/11/02 18:53:55;;;;;;;14.60;3.17;;;11.30;72.30;;;;;;5055412;28;20469;-48
2022/11/02 18:56:21;;;;;;;7.57;2.53;;;11.20;72.20;;;;;;5055310;28;20528;-49
2022/11/02 18:58:51;;;;;;;12.55;3.17;;;11.20;72.20;;;;;;5056096;28;20024;-50
2022/11/02 19:01:18;;;;;;;10.32;3.65;;;11.10;72.40;;;;;;5056699;28;20473;-49
2022/11/02 19:03:48;;;;;;;17.65;3.20;;;11.10;72.80;;;;;;5056923;28;20507;-49
2022/11/02 19:09:17;;;;;;;7.88;2.40;;;11.10;72.60;;;;;;5055302;28;20055;-48
2022/11/02 19:11:55;;;;;;;10.38;2.70;;;11.00;72.80;;;;;;5054919;28;20083;-48
2022/11/02 19:14:22;;;;;;;26.13;5.70;;;11.00;72.80;;;;;;5052941;28;20053;-49
2022/11/02 19:16:48;;;;;;;8.52;2.00;;;11.00;72.70;;;;;;5054088;28;20131;-48
2022/11/02 19:19:14;;;;;;;6.57;2.53;;;11.00;72.90;;;;;;5052388;28;20049;-49
2022/11/02 19:21:39;;;;;;;14.82;2.65;;;11.00;72.70;;;;;;5054090;28;20029;-50
2022/11/02 19:24:06;;;;;;;9.18;3.28;;;10.90;72.80;;;;;;5053918;28;20055;-51
2022/11/02 19:26:33;;;;;;;8.25;2.60;;;11.00;72.90;;;;;;5054203;28;20063;-48
2022/11/02 19:28:58;;;;;;;11.65;2.50;;;11.00;72.70;;;;;;5053476;28;20029;-49
2022/11/02 19:31:24;;;;;;;17.10;3.20;;;11.00;72.60;;;;;;5052103;28;20163;-48
2022/11/02 19:33:51;;;;;;;4.97;2.17;;;11.00;72.70;;;;;;5053453;28;20082;-49
2022/11/02 19:36:16;;;;;;;8.95;2.83;;;10.90;72.70;;;;;;5053637;28;20472;-48
2022/11/02 19:38:42;;;;;;;11.07;3.75;;;11.00;72.50;;;;;;5053157;28;20060;-49
2022/11/02 19:41:10;;;;;;;8.50;2.17;;;11.00;72.60;;;;;;5053548;28;20032;-48
2022/11/02 19:43:40;;;;;;;10.40;2.80;;;11.00;72.60;;;;;;5053394;28;20052;-49
2022/11/02 19:46:08;;;;;;;11.55;2.85;;;11.00;72.40;;;;;;5035363;28;20116;-51
2022/11/02 19:48:34;;;;;;;5.80;2.15;;;11.10;72.40;;;;;;5053231;28;20040;-48
2022/11/02 19:51:09;;;;;;;11.13;3.42;;;11.10;72.10;;;;;;5052926;28;20039;-49
2022/11/02 19:53:39;;;;;;;8.60;2.63;;;11.10;72.20;;;;;;5052742;28;20490;-50
2022/11/02 19:56:09;;;;;;;14.38;2.70;;;11.10;72.20;;;;;;5052866;28;20031;-47
2022/11/02 19:58:34;;;;;;;11.37;3.43;;;11.10;72.00;;;;;;5052766;28;20025;-49
2022/11/02 20:01:05;;;;;;;7.10;3.03;;;11.10;72.00;;;;;;5051359;28;20017;-48
2022/11/02 20:03:31;;;;;;;12.18;3.15;;;11.10;71.90;;;;;;5051800;28;20404;-49
2022/11/02 20:06:01;;;;;;;10.00;2.70;;;11.10;71.90;;;;;;5053546;28;20112;-48
2022/11/02 20:08:27;;;;;;;19.73;4.88;;;11.20;71.60;;;;;;5052956;28;20021;-49
2022/11/02 20:10:52;;;;;;;11.52;2.72;;;11.10;71.70;;;;;;5053843;28;20025;-50
2022/11/02 20:13:18;;;;;;;16.77;3.47;;;11.20;71.60;;;;;;5053292;28;20048;-50
2022/11/02 20:15:44;;;;;;;10.38;2.80;;;11.20;71.70;;;;;;5053162;28;20059;-49
2022/11/02 20:18:09;;;;;;;22.55;5.22;;;11.10;71.80;;;;;;5052808;28;20100;-50
2022/11/02 20:20:35;;;;;;;5.30;2.33;;;11.20;71.60;;;;;;5052674;28;20052;-49
2022/11/02 20:23:01;;;;;;;11.00;3.15;;;11.20;71.40;;;;;;5052884;28;20025;-48
2022/11/02 20:25:27;;;;;;;13.40;5.15;;;11.20;71.40;;;;;;5053122;28;20040;-50
2022/11/02 20:27:52;;;;;;;7.88;2.47;;;11.30;71.30;;;;;;5052918;28;20045;-50
2022/11/02 20:30:21;;;;;;;8.70;2.90;;;11.30;71.10;;;;;;5052616;28;20330;-52
2022/11/02 20:32:46;;;;;;;13.70;3.13;;;11.30;71.10;;;;;;5053121;28;20362;-50
2022/11/02 20:35:12;;;;;;;13.52;3.72;;;11.30;71.10;;;;;;5051345;28;20032;-49
2022/11/02 20:37:38;;;;;;;10.45;2.80;;;11.40;70.80;;;;;;5052612;28;20033;-49
2022/11/02 20:40:04;;;;;;;10.55;2.13;;;11.40;70.60;;;;;;5052052;28;20033;-49
2022/11/02 20:42:29;;;;;;;7.57;2.00;;;11.40;70.50;;;;;;5052985;28;20025;-49
2022/11/02 20:44:55;;;;;;;17.25;2.47;;;11.30;71.00;;;;;;5052954;28;20028;-50
2022/11/02 20:47:21;;;;;;;7.13;1.90;;;11.40;70.80;;;;;;5051373;28;20087;-51
2022/11/02 20:49:47;;;;;;;10.70;2.85;;;11.40;70.80;;;;;;5052760;28;20056;-50
2022/11/02 20:52:13;;;;;;;5.03;1.88;;;11.40;70.90;;;;;;5052834;28;20017;-50
2022/11/02 20:54:38;;;;;;;13.07;2.63;;;11.30;71.00;;;;;;5052632;28;20381;-49
2022/11/02 20:57:04;;;;;;;8.88;2.00;;;11.30;71.10;;;;;;5052827;28;20033;-48
2022/11/02 20:59:30;;;;;;;7.88;3.13;;;11.30;71.10;;;;;;5052728;28;20021;-52
2022/11/02 21:01:55;;;;;;;8.75;2.65;;;11.30;71.30;;;;;;5052756;28;20108;-48
2022/11/02 21:04:21;;;;;;;7.53;3.13;;;11.30;71.50;;;;;;5051319;28;20063;-50
2022/11/02 21:06:47;;;;;;;17.95;4.63;;;11.30;71.80;;;;;;5055054;28;20568;-49
2022/11/02 21:09:13;;;;;;;14.95;3.00;;;11.30;71.70;;;;;;5054896;28;20032;-50
2022/11/02 21:14:23;;;;;;;9.75;2.33;;;11.30;71.70;;;;;;5056434;28;20036;-49
2022/11/02 21:16:48;;;;;;;15.32;2.10;;;11.30;71.70;;;;;;5056635;28;20029;-50
2022/11/02 21:19:14;;;;;;;12.52;2.47;;;11.30;71.90;;;;;;5055990;28;20405;-49
2022/11/02 21:21:39;;;;;;;7.70;2.17;;;11.30;71.50;;;;;;5056244;28;20059;-51
2022/11/02 21:24:05;;;;;;;7.32;2.30;;;11.30;71.80;;;;;;5056057;28;20036;-50
2022/11/02 21:26:31;;;;;;;6.82;2.45;;;11.20;72.10;;;;;;5055752;28;20025;-47
2022/11/02 21:28:59;;;;;;;8.40;2.45;;;11.30;71.90;;;;;;5056119;28;20076;-47
2022/11/02 21:31:25;;;;;;;8.45;1.90;;;11.30;71.80;;;;;;5055695;28;20025;-48
2022/11/02 21:33:50;;;;;;;13.32;4.95;;;11.30;72.00;;;;;;5054672;28;20383;-53
2022/11/02 21:36:17;;;;;;;15.75;3.55;;;11.30;72.10;;;;;;5055915;28;20021;-49
2022/11/02 21:38:49;;;;;;;9.93;2.33;;;11.30;72.10;;;;;;5055639;28;20378;-50
2022/11/02 21:41:21;;;;;;;8.77;2.55;;;11.20;72.00;;;;;;5055596;28;20029;-48
2022/11/02 21:43:50;;;;;;;14.98;3.03;;;11.20;72.60;;;;;;5055789;28;20069;-50
2022/11/02 21:46:17;;;;;;;16.73;3.65;;;11.10;72.60;;;;;;5055299;28;20021;-50
2022/11/02 21:48:43;;;;;;;10.10;2.53;;;11.10;72.40;;;;;;5055523;28;20462;-48
2022/11/02 21:51:11;;;;;;;6.90;3.15;;;11.20;72.30;;;;;;5055363;28;20028;-51
2022/11/02 21:53:40;;;;;;;5.55;2.33;;;11.10;72.50;;;;;;5055406;28;20079;-50
2022/11/02 21:56:14;;;;;;;7.13;2.13;;;11.10;72.60;;;;;;5055187;28;20492;-51
2022/11/02 21:58:40;;;;;;;12.15;3.25;;;11.10;72.50;;;;;;5055311;28;20032;-49
2022/11/02 22:01:45;;;;;;;14.82;4.32;;;11.00;72.60;;;;;;5054957;28;20090;-49
2022/11/02 22:04:31;;;;;;;11.10;2.65;;;11.00;72.90;;;;;;5055271;28;20521;-49
2022/11/02 22:06:58;;;;;;;8.20;3.00;;;11.00;72.90;;;;;;5055373;28;20151;-51
2022/11/02 22:09:24;;;;;;;12.02;3.95;;;11.00;73.20;;;;;;5055186;28;20032;-52
2022/11/02 22:13:31;;;;;;;8.20;2.42;;;11.00;72.90;;;;;;5054883;28;20036;-48
2022/11/02 22:14:39;;;;;;;12.40;2.55;;;10.90;73.20;;;;;;5054979;28;20024;-51
2022/11/02 22:17:06;;;;;;;13.07;3.30;;;10.90;73.50;;;;;;5054858;28;20057;-49
2022/11/02 22:19:34;;;;;;;8.90;2.88;;;10.80;73.70;;;;;;5055036;28;20075;-48
2022/11/02 22:22:00;;;;;;;6.85;2.45;;;10.90;73.60;;;;;;5055311;28;20487;-48
2022/11/02 22:24:26;;;;;;;8.18;2.22;;;11.00;73.10;;;;;;5054768;28;20025;-50
2022/11/02 22:26:52;;;;;;;4.95;2.05;;;11.00;73.20;;;;;;5055126;28;20100;-49
2022/11/02 22:29:19;;;;;;;13.63;2.42;;;11.00;73.10;;;;;;5054746;28;20453;-48
2022/11/02 22:31:45;;;;;;;14.68;2.22;;;11.00;73.20;;;;;;5053244;28;20048;-48
2022/11/02 22:34:12;;;;;;;11.75;2.20;;;11.10;72.90;;;;;;5054490;28;20032;-47
2022/11/02 22:36:40;;;;;;;13.35;1.98;;;11.10;72.90;;;;;;5054769;28;20051;-48
2022/11/02 22:39:08;;;;;;;8.52;3.38;;;11.10;73.00;;;;;;5054210;28;20033;-52
2022/11/02 22:41:42;;;;;;;7.15;2.55;;;11.20;72.70;;;;;;5052998;28;20029;-48
2022/11/02 22:44:10;;;;;;;7.95;3.05;;;11.20;72.50;;;;;;5054556;28;20025;-50
2022/11/02 22:46:38;;;;;;;12.50;2.85;;;11.30;72.50;;;;;;5054475;28;20355;-48
2022/11/02 22:49:04;;;;;;;7.00;2.00;;;11.30;72.50;;;;;;5054192;28;20051;-52
2022/11/02 22:51:32;;;;;;;14.35;1.90;;;11.30;72.50;;;;;;5054100;28;20475;-48
2022/11/02 22:54:03;;;;;;;13.10;3.17;;;11.30;72.20;;;;;;5054384;28;20361;-48
2022/11/02 22:56:30;;;;;;;8.27;2.08;;;11.30;72.30;;;;;;5054400;28;20108;-48
2022/11/02 22:58:56;;;;;;;7.13;2.63;;;11.30;72.40;;;;;;5053784;28;20024;-50
2022/11/02 23:01:24;;;;;;;7.65;2.60;;;11.30;72.40;;;;;;5053815;28;20021;-49
2022/11/02 23:03:50;;;;;;;11.50;1.70;;;11.40;72.40;;;;;;5053743;28;20021;-49
2022/11/02 23:06:19;;;;;;;5.43;1.48;;;11.30;72.40;;;;;;5035898;28;20025;-51
2022/11/02 23:08:46;;;;;;;6.30;2.05;;;11.30;72.60;;;;;;5053725;28;20024;-50
2022/11/02 23:11:22;;;;;;;14.73;2.50;;;11.30;72.90;;;;;;5053685;28;20021;-50
2022/11/02 23:13:53;;;;;;;14.82;2.17;;;11.30;73.00;;;;;;5053998;28;20057;-50
2022/11/02 23:16:21;;;;;;;9.20;2.13;;;11.30;72.90;;;;;;5054123;28;20083;-53
2022/11/02 23:19:21;;;;;;;9.52;1.75;;;11.30;72.80;;;;;;5053541;28;20078;-50
2022/11/02 23:21:48;;;;;;;;;;;11.30;72.50;;;;;;5054336;28;20033;-49
2022/11/02 23:27:00;;;;;;;17.00;4.90;;;11.30;72.90;;;;;;5053722;28;20126;-49
2022/11/02 23:32:25;;;;;;;8.38;2.08;;;11.30;72.80;;;;;;5053592;28;20045;-51
2022/11/02 23:37:35;;;;;;;10.02;2.38;;;11.30;73.30;;;;;;5053390;28;20124;-48